Time;durP1;ratioP1;P1;durP2;ratioP2;P2;SDS_P1;SDS_P2;PMS_P1;PMS_P2;Temp;Humidity;BMP_temperature;BMP_pressure;BME280_temperature;BME280_humidity;BME280_pressure;Samples;Min_cycle;Max_cycle;Signal;HPM_P1;HPM_P2
2022/06/12 00:02:08;;;;;;;5.72;4.90;;;;;;;;;;5051302;28;20100;-55
2022/06/12 00:04:34;;;;;;;6.43;5.28;;;;;;;;;;5050833;28;20043;-49
2022/06/12 00:06:59;;;;;;;6.05;4.72;;;;;;;;;;5050844;28;20024;-52
2022/06/12 00:09:24;;;;;;;5.35;4.70;;;;;;;;;;5051240;28;20061;-48
2022/06/12 00:11:50;;;;;;;6.63;4.70;;;;;;;;;;5051227;28;20486;-45
2022/06/12 00:14:15;;;;;;;6.18;4.70;;;;;;;;;;5050994;28;20032;-53
2022/06/12 00:16:42;;;;;;;6.68;4.80;;;;;;;;;;5051887;28;20029;-55
2022/06/12 00:19:09;;;;;;;7.10;4.63;;;;;;;;;;5051912;28;20123;-45
2022/06/12 00:21:35;;;;;;;6.35;4.65;;;;;;;;;;5051122;28;20400;-50
2022/06/12 00:24:08;;;;;;;5.75;4.55;;;;;;;;;;5051528;28;20059;-55
2022/06/12 00:26:47;;;;;;;5.32;4.82;;;;;;;;;;5051524;28;20051;-49
2022/06/12 00:29:17;;;;;;;5.45;4.93;;;;;;;;;;5052624;28;20047;-54
2022/06/12 00:31:48;;;;;;;5.53;4.93;;;;;;;;;;5052486;28;20025;-58
2022/06/12 00:34:15;;;;;;;6.60;5.10;;;;;;;;;;5052796;28;20089;-44
2022/06/12 00:36:41;;;;;;;5.88;4.93;;;;;;;;;;5052766;28;20087;-55
2022/06/12 00:39:08;;;;;;;9.00;4.85;;;;;;;;;;5052698;28;20025;-51
2022/06/12 00:41:35;;;;;;;6.32;4.80;;;;;;;;;;5051419;28;20036;-47
2022/06/12 00:44:00;;;;;;;6.05;5.32;;;;;;;;;;5051204;28;20029;-55
2022/06/12 00:47:01;;;;;;;5.55;5.05;;;;;;;;;;5052537;28;20039;-49
2022/06/12 00:49:34;;;;;;;6.93;4.10;;;;;;;;;;5051182;28;20033;-52
2022/06/12 00:52:09;;;;;;;5.55;4.97;;;;;;;;;;5052575;28;20376;-48
2022/06/12 00:54:35;;;;;;;7.68;4.65;;;;;;;;;;5052079;28;20048;-49
2022/06/12 00:57:03;;;;;;;5.57;4.85;;;;;;;;;;5052265;28;20037;-46
2022/06/12 00:59:34;;;;;;;6.68;5.40;;;;;;;;;;5052511;28;20479;-50
2022/06/12 01:02:00;;;;;;;5.40;4.88;;;;;;;;;;5052217;28;20055;-55
2022/06/12 01:07:15;;;;;;;5.80;5.05;;;;;;;;;;5055355;28;20040;-47
2022/06/12 01:09:44;;;;;;;8.40;5.15;;;;;;;;;;5056561;28;20372;-48
2022/06/12 01:12:14;;;;;;;7.00;5.15;;;;;;;;;;5056211;28;20032;-48
2022/06/12 01:14:48;;;;;;;6.85;5.35;;;;;;;;;;5056155;28;20025;-47
2022/06/12 01:17:14;;;;;;;6.03;5.38;;;;;;;;;;5056011;28;20384;-43
2022/06/12 01:19:47;;;;;;;6.75;5.05;;;;;;;;;;5056254;28;20029;-43
2022/06/12 01:22:25;;;;;;;5.68;4.93;;;;;;;;;;5055998;28;20029;-55
2022/06/12 01:25:17;;;;;;;7.40;5.68;;;;;;;;;;5055794;28;20029;-53
2022/06/12 01:28:04;;;;;;;5.55;5.05;;;;;;;;;;5056005;28;20069;-54
2022/06/12 01:30:38;;;;;;;7.00;5.15;;;;;;;;;;5055788;28;20485;-56
2022/06/12 01:33:20;;;;;;;6.40;5.43;;;;;;;;;;5056094;28;20488;-44
2022/06/12 01:35:59;;;;;;;7.13;5.68;;;;;;;;;;5055967;28;20024;-43
2022/06/12 01:38:34;;;;;;;12.25;5.30;;;;;;;;;;5055656;28;20029;-54
2022/06/12 01:41:40;;;;;;;6.82;5.85;;;;;;;;;;5055931;28;20029;-45
2022/06/12 01:44:34;;;;;;;5.95;5.38;;;;;;;;;;5055457;28;20033;-44
2022/06/12 01:47:07;;;;;;;5.97;5.32;;;;;;;;;;5046073;28;20040;-46
2022/06/12 01:49:41;;;;;;;6.80;5.75;;;;;;;;;;5055781;28;20082;-47
2022/06/12 01:52:11;;;;;;;8.13;5.97;;;;;;;;;;5055710;28;20020;-51
2022/06/12 01:54:57;;;;;;;6.78;5.93;;;;;;;;;;5054162;28;20040;-53
2022/06/12 01:57:32;;;;;;;6.65;5.95;;;;;;;;;;5055701;28;20090;-54
2022/06/12 02:00:09;;;;;;;6.57;5.65;;;;;;;;;;5055509;28;20029;-48
2022/06/12 02:02:46;;;;;;;6.45;5.85;;;;;;;;;;5055464;28;20028;-54
2022/06/12 02:05:26;;;;;;;6.43;5.72;;;;;;;;;;5055165;28;20484;-50
2022/06/12 02:07:57;;;;;;;12.93;6.00;;;;;;;;;;5055303;28;20021;-49
2022/06/12 02:10:33;;;;;;;6.65;6.00;;;;;;;;;;5055150;28;20439;-52
2022/06/12 02:13:13;;;;;;;9.13;5.85;;;;;;;;;;5055335;28;20435;-48
2022/06/12 02:15:45;;;;;;;7.30;5.75;;;;;;;;;;5055305;28;20033;-43
2022/06/12 02:18:19;;;;;;;6.60;5.72;;;;;;;;;;5054447;28;20478;-49
2022/06/12 02:20:51;;;;;;;8.88;5.93;;;;;;;;;;5055179;28;20025;-44
2022/06/12 02:23:27;;;;;;;8.77;6.28;;;;;;;;;;5055107;28;20419;-43
2022/06/12 02:25:55;;;;;;;7.20;6.03;;;;;;;;;;5055051;28;20025;-54
2022/06/12 02:28:26;;;;;;;8.07;5.90;;;;;;;;;;5055004;28;20414;-43
2022/06/12 02:31:00;;;;;;;6.90;6.20;;;;;;;;;;5055116;28;20025;-53
2022/06/12 02:33:34;;;;;;;6.90;6.00;;;;;;;;;;5054630;28;20020;-44
2022/06/12 02:36:08;;;;;;;7.15;6.20;;;;;;;;;;5055057;28;20115;-49
2022/06/12 02:38:42;;;;;;;10.07;5.80;;;;;;;;;;5054589;28;20024;-50
2022/06/12 02:41:13;;;;;;;8.63;6.20;;;;;;;;;;5054822;28;20155;-49
2022/06/12 02:43:44;;;;;;;7.88;6.68;;;;;;;;;;5054754;28;20056;-47
2022/06/12 02:46:14;;;;;;;;;;;;;;;;;;5054856;28;20114;-46
2022/06/12 02:48:40;;;;;;;6.38;5.80;;;;;;;;;;5054691;28;19920;-43
2022/06/12 02:51:39;;;;;;;7.18;6.30;;;;;;;;;;5054320;28;20542;-45
2022/06/12 02:54:05;;;;;;;10.75;6.30;;;;;;;;;;5052145;28;20500;-49
2022/06/12 02:56:52;;;;;;;6.10;5.50;;;;;;;;;;5054285;28;20060;-44
2022/06/12 02:59:39;;;;;;;7.43;5.88;;;;;;;;;;5054463;28;20029;-46
2022/06/12 03:02:16;;;;;;;6.93;6.22;;;;;;;;;;5054322;28;20033;-47
2022/06/12 03:04:47;;;;;;;8.00;6.25;;;;;;;;;;5054320;28;20032;-45
2022/06/12 03:07:13;;;;;;;7.78;5.85;;;;;;;;;;5054308;28;20029;-57
2022/06/12 03:09:39;;;;;;;6.72;5.85;;;;;;;;;;5053975;28;20542;-54
2022/06/12 03:12:06;;;;;;;7.20;5.95;;;;;;;;;;5054170;28;20028;-53
2022/06/12 03:14:32;;;;;;;6.97;5.80;;;;;;;;;;5054189;28;20416;-49
2022/06/12 03:16:57;;;;;;;5.85;5.35;;;;;;;;;;5053874;28;20029;-45
2022/06/12 03:19:28;;;;;;;8.25;5.38;;;;;;;;;;5054131;28;20036;-46
2022/06/12 03:22:14;;;;;;;10.32;5.45;;;;;;;;;;5054024;28;20036;-46
2022/06/12 03:24:58;;;;;;;5.63;5.13;;;;;;;;;;5053586;28;20480;-53
2022/06/12 03:27:23;;;;;;;7.55;5.53;;;;;;;;;;5053582;28;20021;-58
2022/06/12 03:30:07;;;;;;;5.25;4.80;;;;;;;;;;5052695;28;20021;-50
2022/06/12 03:32:45;;;;;;;5.20;4.50;;;;;;;;;;5053742;28;20454;-47
2022/06/12 03:35:27;;;;;;;7.60;5.18;;;;;;;;;;5053453;28;20060;-49
2022/06/12 03:38:31;;;;;;;6.03;4.40;;;;;;;;;;5053454;28;20468;-45
2022/06/12 03:41:19;;;;;;;7.20;4.90;;;;;;;;;;5053308;28;20032;-54
2022/06/12 03:44:12;;;;;;;5.75;4.53;;;;;;;;;;5053702;28;20061;-53
2022/06/12 03:46:47;;;;;;;5.05;4.25;;;;;;;;;;5053556;28;20060;-56
2022/06/12 03:49:38;;;;;;;7.10;4.00;;;;;;;;;;5053443;28;20381;-53
2022/06/12 03:52:19;;;;;;;6.95;4.45;;;;;;;;;;5053540;28;20063;-57
2022/06/12 03:55:06;;;;;;;6.00;4.20;;;;;;;;;;5052788;28;20492;-60
2022/06/12 03:57:52;;;;;;;7.75;4.30;;;;;;;;;;5053113;28;20399;-42
2022/06/12 04:00:35;;;;;;;6.35;3.97;;;;;;;;;;5053057;28;20040;-47
2022/06/12 04:03:14;;;;;;;5.75;3.88;;;;;;;;;;5053343;28;20052;-56
2022/06/12 04:05:48;;;;;;;7.10;3.72;;;;;;;;;;5053250;28;20030;-52
2022/06/12 04:08:19;;;;;;;6.07;4.10;;;;;;;;;;5052874;28;20481;-49
2022/06/12 04:10:45;;;;;;;6.78;3.60;;;;;;;;;;5052784;28;20499;-48
2022/06/12 04:13:14;;;;;;;5.20;3.70;;;;;;;;;;5052859;28;20025;-44
2022/06/12 04:16:05;;;;;;;4.10;3.70;;;;;;;;;;5052821;28;20074;-44
2022/06/12 04:18:32;;;;;;;3.60;3.30;;;;;;;;;;5053084;28;20077;-49
2022/06/12 04:21:14;;;;;;;3.47;3.17;;;;;;;;;;5052983;28;20070;-60
2022/06/12 04:23:53;;;;;;;8.27;3.40;;;;;;;;;;5052895;28;20023;-47
2022/06/12 04:26:41;;;;;;;5.05;3.08;;;;;;;;;;5052809;28;20384;-57
2022/06/12 04:29:13;;;;;;;3.40;3.10;;;;;;;;;;5052846;28;20028;-46
2022/06/12 04:31:41;;;;;;;4.22;3.00;;;;;;;;;;5052804;28;20086;-54
2022/06/12 04:34:14;;;;;;;6.53;2.97;;;;;;;;;;5052495;28;20078;-51
2022/06/12 04:36:42;;;;;;;5.63;2.67;;;;;;;;;;5052496;28;20039;-50
2022/06/12 04:39:08;;;;;;;3.22;2.92;;;;;;;;;;5052385;28;20472;-53
2022/06/12 04:41:35;;;;;;;3.28;2.70;;;;;;;;;;5052556;28;20029;-45
2022/06/12 04:44:03;;;;;;;4.65;2.78;;;;;;;;;;5052567;28;20040;-51
2022/06/12 04:46:29;;;;;;;5.75;2.58;;;;;;;;;;5052445;28;20028;-49
2022/06/12 04:48:56;;;;;;;3.20;2.85;;;;;;;;;;5052289;28;20465;-57
2022/06/12 04:51:22;;;;;;;3.72;2.70;;;;;;;;;;5052370;28;20531;-44
2022/06/12 04:53:48;;;;;;;2.67;2.28;;;;;;;;;;5052284;28;20044;-46
2022/06/12 04:56:16;;;;;;;4.57;2.95;;;;;;;;;;5052141;28;20057;-47
2022/06/12 04:58:42;;;;;;;2.85;2.20;;;;;;;;;;5052519;28;20056;-47
2022/06/12 05:01:08;;;;;;;2.55;2.35;;;;;;;;;;5052262;28;20056;-44
2022/06/12 05:03:35;;;;;;;2.70;2.50;;;;;;;;;;5052485;28;20036;-46
2022/06/12 05:06:00;;;;;;;2.53;2.33;;;;;;;;;;5052110;28;20040;-60
2022/06/12 05:08:26;;;;;;;4.53;2.38;;;;;;;;;;5052425;28;20021;-63
2022/06/12 05:10:52;;;;;;;2.60;2.40;;;;;;;;;;5052461;28;20132;-61
2022/06/12 05:13:17;;;;;;;2.67;2.47;;;;;;;;;;5052064;28;20043;-46
2022/06/12 05:15:44;;;;;;;2.72;2.30;;;;;;;;;;5052126;28;20116;-63
2022/06/12 05:18:11;;;;;;;6.75;2.33;;;;;;;;;;5052304;28;20426;-46
2022/06/12 05:20:37;;;;;;;4.00;2.13;;;;;;;;;;5052318;28;20393;-48
2022/06/12 05:23:03;;;;;;;2.45;2.20;;;;;;;;;;5052011;28;20040;-50
2022/06/12 05:25:30;;;;;;;2.55;2.35;;;;;;;;;;5052225;28;20033;-48
2022/06/12 05:27:56;;;;;;;2.03;1.90;;;;;;;;;;5052210;28;20117;-49
2022/06/12 05:30:25;;;;;;;2.22;2.03;;;;;;;;;;5052285;28;20029;-45
2022/06/12 05:32:52;;;;;;;2.28;2.03;;;;;;;;;;5052148;28;20021;-49
2022/06/12 05:35:19;;;;;;;2.58;2.20;;;;;;;;;;5051939;28;20069;-47
2022/06/12 05:37:45;;;;;;;2.03;1.90;;;;;;;;;;5052139;28;20045;-52
2022/06/12 05:40:17;;;;;;;2.63;2.08;;;;;;;;;;5052140;28;20472;-46
2022/06/12 05:42:43;;;;;;;2.53;2.15;;;;;;;;;;5050966;28;20025;-50
2022/06/12 05:45:13;;;;;;;2.45;1.85;;;;;;;;;;5052015;28;20404;-48
2022/06/12 05:47:52;;;;;;;3.13;2.03;;;;;;;;;;5052070;28;20021;-48
2022/06/12 05:50:19;;;;;;;5.82;2.03;;;;;;;;;;5052445;28;20083;-51
2022/06/12 05:52:45;;;;;;;2.47;2.08;;;;;;;;;;5053669;28;20029;-45
2022/06/12 05:55:11;;;;;;;2.22;1.85;;;;;;;;;;5055320;28;20041;-53
2022/06/12 05:57:37;;;;;;;3.30;2.03;;;;;;;;;;5055577;28;20028;-52
2022/06/12 06:00:07;;;;;;;4.13;2.08;;;;;;;;;;5055581;28;20017;-52
2022/06/12 06:02:34;;;;;;;3.15;2.00;;;;;;;;;;5055170;28;20074;-51
2022/06/12 06:05:00;;;;;;;5.05;2.08;;;;;;;;;;5055098;28;20036;-50
2022/06/12 06:07:26;;;;;;;2.30;1.80;;;;;;;;;;5055224;28;20029;-41
2022/06/12 06:09:51;;;;;;;2.65;2.13;;;;;;;;;;5055418;28;20020;-48
2022/06/12 06:12:18;;;;;;;2.45;2.03;;;;;;;;;;5055654;28;20364;-51
2022/06/12 06:14:44;;;;;;;6.05;2.00;;;;;;;;;;5055297;28;20104;-48
2022/06/12 06:17:10;;;;;;;2.25;2.03;;;;;;;;;;5054958;28;20607;-44
2022/06/12 06:19:35;;;;;;;2.10;1.85;;;;;;;;;;5054995;28;20051;-43
2022/06/12 06:22:00;;;;;;;3.13;1.83;;;;;;;;;;5055466;28;20380;-46
2022/06/12 06:24:26;;;;;;;2.38;2.17;;;;;;;;;;5054749;28;20372;-51
2022/06/12 06:26:51;;;;;;;2.55;1.95;;;;;;;;;;5055086;28;20060;-56
2022/06/12 06:29:17;;;;;;;2.15;1.85;;;;;;;;;;5054705;28;20487;-50
2022/06/12 06:31:43;;;;;;;2.33;2.00;;;;;;;;;;5054729;28;20032;-52
2022/06/12 06:34:08;;;;;;;2.60;1.85;;;;;;;;;;5054867;28;20025;-45
2022/06/12 06:36:34;;;;;;;6.13;1.70;;;;;;;;;;5054870;28;20537;-47
2022/06/12 06:38:59;;;;;;;1.67;1.58;;;;;;;;;;5054531;28;20423;-44
2022/06/12 06:41:25;;;;;;;2.53;2.22;;;;;;;;;;5054785;28;20033;-46
2022/06/12 06:46:35;;;;;;;2.75;1.90;;;;;;;;;;5054746;28;20095;-48
2022/06/12 06:49:01;;;;;;;3.58;2.13;;;;;;;;;;5054356;28;20427;-45
2022/06/12 06:51:27;;;;;;;2.85;1.70;;;;;;;;;;5054650;28;20021;-47
2022/06/12 06:53:52;;;;;;;3.45;1.70;;;;;;;;;;5054241;28;20028;-46
2022/06/12 06:56:18;;;;;;;5.97;1.80;;;;;;;;;;5052907;28;20049;-49
2022/06/12 06:58:44;;;;;;;1.90;1.67;;;;;;;;;;5054136;28;20029;-49
2022/06/12 07:01:09;;;;;;;1.95;1.55;;;;;;;;;;5054430;28;20028;-49
2022/06/12 07:03:35;;;;;;;1.80;1.70;;;;;;;;;;5054041;28;20464;-45
2022/06/12 07:06:02;;;;;;;2.83;1.70;;;;;;;;;;5053945;28;20033;-48
2022/06/12 07:08:28;;;;;;;2.33;1.80;;;;;;;;;;5054224;28;20060;-46
2022/06/12 07:10:54;;;;;;;1.95;1.80;;;;;;;;;;5054014;28;20412;-50
2022/06/12 07:13:21;;;;;;;3.47;1.90;;;;;;;;;;5053812;28;20060;-44
2022/06/12 07:15:47;;;;;;;2.13;1.80;;;;;;;;;;5054151;28;20095;-42
2022/06/12 07:18:13;;;;;;;4.30;1.83;;;;;;;;;;5054092;28;20048;-47
2022/06/12 07:20:47;;;;;;;2.00;1.75;;;;;;;;;;5053747;28;20350;-46
2022/06/12 07:23:14;;;;;;;2.20;2.00;;;;;;;;;;5053744;28;20424;-47
2022/06/12 07:25:44;;;;;;;2.63;1.80;;;;;;;;;;5053676;28;20461;-46
2022/06/12 07:28:11;;;;;;;1.80;1.70;;;;;;;;;;5053666;28;20539;-45
2022/06/12 07:30:37;;;;;;;3.95;1.80;;;;;;;;;;5053853;28;20032;-52
2022/06/12 07:33:04;;;;;;;2.17;1.88;;;;;;;;;;5053818;28;20033;-49
2022/06/12 07:35:30;;;;;;;2.58;1.63;;;;;;;;;;5053752;28;20017;-47
2022/06/12 07:37:56;;;;;;;3.33;1.80;;;;;;;;;;5053706;28;20017;-47
2022/06/12 07:40:28;;;;;;;2.08;1.88;;;;;;;;;;5053430;28;20079;-47
2022/06/12 07:42:54;;;;;;;1.63;1.52;;;;;;;;;;5053669;28;20036;-49
2022/06/12 07:45:19;;;;;;;2.92;2.03;;;;;;;;;;5053589;28;20028;-49
2022/06/12 07:47:45;;;;;;;2.65;1.52;;;;;;;;;;5053575;28;20029;-49
2022/06/12 07:50:12;;;;;;;3.85;2.05;;;;;;;;;;5053241;28;20476;-49
2022/06/12 07:52:39;;;;;;;2.55;1.83;;;;;;;;;;5053157;28;20028;-44
2022/06/12 07:55:07;;;;;;;2.72;1.70;;;;;;;;;;5053160;28;20163;-48
2022/06/12 07:57:33;;;;;;;1.45;1.35;;;;;;;;;;5053030;28;20107;-50
2022/06/12 07:59:58;;;;;;;4.15;2.10;;;;;;;;;;5053346;28;20053;-45
2022/06/12 08:02:24;;;;;;;1.92;1.83;;;;;;;;;;5052991;28;20032;-45
2022/06/12 08:04:50;;;;;;;2.50;1.80;;;;;;;;;;5052882;28;20095;-48
2022/06/12 08:07:15;;;;;;;7.40;2.05;;;;;;;;;;5053178;28;20360;-50
2022/06/12 08:09:41;;;;;;;3.47;1.60;;;;;;;;;;5053148;28;20024;-55
2022/06/12 08:12:06;;;;;;;4.47;1.73;;;;;;;;;;5052745;28;20464;-50
2022/06/12 08:14:32;;;;;;;5.35;2.72;;;;;;;;;;5051427;28;20087;-49
2022/06/12 08:16:57;;;;;;;1.98;1.80;;;;;;;;;;5052976;28;20017;-54
2022/06/12 08:22:08;;;;;;;4.05;2.17;;;;;;;;;;5052941;28;20483;-49
2022/06/12 08:24:36;;;;;;;2.60;2.10;;;;;;;;;;5052797;28;20064;-49
2022/06/12 08:27:01;;;;;;;6.65;2.00;;;;;;;;;;5052858;28;20071;-49
2022/06/12 08:29:27;;;;;;;4.32;2.20;;;;;;;;;;5052859;28;20419;-51
2022/06/12 08:31:58;;;;;;;2.05;1.88;;;;;;;;;;5052815;28;20514;-53
2022/06/12 08:34:46;;;;;;;1.77;1.45;;;;;;;;;;5052562;28;20108;-59
2022/06/12 08:37:33;;;;;;;1.70;1.60;;;;;;;;;;5052362;28;20496;-45
2022/06/12 08:40:00;;;;;;;1.83;1.73;;;;;;;;;;5052344;28;20033;-45
2022/06/12 08:42:31;;;;;;;2.95;2.13;;;;;;;;;;5052386;28;20102;-45
2022/06/12 08:45:15;;;;;;;1.88;1.77;;;;;;;;;;5052622;28;20032;-56
2022/06/12 08:48:25;;;;;;;4.45;1.80;;;;;;;;;;5052693;28;20376;-52
2022/06/12 08:51:01;;;;;;;2.22;1.70;;;;;;;;;;5052581;28;20033;-45
2022/06/12 08:53:39;;;;;;;1.48;1.38;;;;;;;;;;5052604;28;20025;-46
2022/06/12 08:56:32;;;;;;;2.13;1.92;;;;;;;;;;5052068;28;20053;-53
2022/06/12 08:59:10;;;;;;;3.10;1.90;;;;;;;;;;5051680;28;20485;-49
2022/06/12 09:01:41;;;;;;;1.95;1.77;;;;;;;;;;5052227;28;20037;-57
2022/06/12 09:04:10;;;;;;;1.67;1.58;;;;;;;;;;5051985;28;20047;-44
2022/06/12 09:06:42;;;;;;;1.30;1.20;;;;;;;;;;5052307;28;20029;-46
2022/06/12 09:09:20;;;;;;;2.00;1.90;;;;;;;;;;5050827;28;20036;-50
2022/06/12 09:11:54;;;;;;;1.42;1.33;;;;;;;;;;5051942;28;20485;-51
2022/06/12 09:14:32;;;;;;;1.48;1.38;;;;;;;;;;5051994;28;20074;-48
2022/06/12 09:17:29;;;;;;;2.65;1.88;;;;;;;;;;5052348;28;20450;-63
2022/06/12 09:20:14;;;;;;;3.28;2.20;;;;;;;;;;5052126;28;20035;-48
2022/06/12 09:23:13;;;;;;;2.55;1.95;;;;;;;;;;5052262;28;20029;-56
2022/06/12 09:25:59;;;;;;;2.90;1.70;;;;;;;;;;5052254;28;20051;-47
2022/06/12 09:28:29;;;;;;;3.20;2.15;;;;;;;;;;5055045;28;20501;-52
2022/06/12 09:31:09;;;;;;;4.15;1.75;;;;;;;;;;5055999;28;20025;-44
2022/06/12 09:33:56;;;;;;;2.30;2.10;;;;;;;;;;5055682;28;20029;-43
2022/06/12 09:36:39;;;;;;;2.40;2.20;;;;;;;;;;5055955;28;20025;-51
2022/06/12 09:39:14;;;;;;;3.60;2.00;;;;;;;;;;5055893;28;20021;-54
2022/06/12 09:42:06;;;;;;;1.90;1.70;;;;;;;;;;5055878;28;20052;-47
2022/06/12 09:44:32;;;;;;;2.83;1.65;;;;;;;;;;5055734;28;20032;-44
2022/06/12 09:47:11;;;;;;;2.15;2.00;;;;;;;;;;5055684;28;20025;-52
2022/06/12 09:49:55;;;;;;;2.88;1.92;;;;;;;;;;5055485;28;20021;-50
2022/06/12 09:52:48;;;;;;;2.38;1.95;;;;;;;;;;5055476;28;20029;-43
2022/06/12 09:55:32;;;;;;;2.63;2.20;;;;;;;;;;5052310;28;20037;-62
2022/06/12 09:58:23;;;;;;;4.75;2.10;;;;;;;;;;5055113;28;20033;-44
2022/06/12 10:01:13;;;;;;;1.83;1.45;;;;;;;;;;5055076;28;20036;-50
2022/06/12 10:03:49;;;;;;;2.35;1.90;;;;;;;;;;5053530;28;20033;-45
2022/06/12 10:06:26;;;;;;;3.15;1.80;;;;;;;;;;5054111;28;20083;-42
2022/06/12 10:09:08;;;;;;;2.17;1.98;;;;;;;;;;5054490;28;20484;-48
2022/06/12 10:11:49;;;;;;;2.05;1.95;;;;;;;;;;5053741;28;20052;-44
2022/06/12 10:14:36;;;;;;;1.75;1.65;;;;;;;;;;5053427;28;20044;-42
2022/06/12 10:17:11;;;;;;;2.20;2.03;;;;;;;;;;5054248;28;20041;-47
2022/06/12 10:19:58;;;;;;;2.03;1.73;;;;;;;;;;5054357;28;20032;-45
2022/06/12 10:22:37;;;;;;;2.95;1.92;;;;;;;;;;5054673;28;20036;-48
2022/06/12 10:25:05;;;;;;;2.03;1.93;;;;;;;;;;5054598;28;20116;-42
2022/06/12 10:27:51;;;;;;;2.75;1.98;;;;;;;;;;5054793;28;20258;-43
2022/06/12 10:30:56;;;;;;;1.77;1.63;;;;;;;;;;5054351;28;20067;-41
2022/06/12 10:33:25;;;;;;;2.92;2.63;;;;;;;;;;5047935;28;20033;-45
2022/06/12 10:35:52;;;;;;;1.73;1.63;;;;;;;;;;5054510;28;20032;-41
2022/06/12 10:38:20;;;;;;;6.47;2.00;;;;;;;;;;5053087;28;20027;-51
2022/06/12 10:41:00;;;;;;;1.52;1.42;;;;;;;;;;5054773;28;20068;-40
2022/06/12 10:43:38;;;;;;;2.20;2.10;;;;;;;;;;5054558;28;20033;-48
2022/06/12 10:46:19;;;;;;;3.20;2.15;;;;;;;;;;5054608;28;20029;-46
2022/06/12 10:49:03;;;;;;;2.10;1.90;;;;;;;;;;5054693;28;20078;-49
2022/06/12 10:51:28;;;;;;;4.15;1.77;;;;;;;;;;5054561;28;20032;-53
2022/06/12 10:54:00;;;;;;;1.70;1.60;;;;;;;;;;5054272;28;20021;-57
2022/06/12 10:56:28;;;;;;;3.45;2.00;;;;;;;;;;5053981;28;20053;-43
2022/06/12 10:59:09;;;;;;;2.40;2.20;;;;;;;;;;5054500;28;20410;-54
2022/06/12 11:01:54;;;;;;;3.33;2.10;;;;;;;;;;5053048;28;20028;-52
2022/06/12 11:04:47;;;;;;;4.20;1.77;;;;;;;;;;5054322;28;20027;-46
2022/06/12 11:07:37;;;;;;;2.30;2.10;;;;;;;;;;5054282;28;20032;-50
2022/06/12 11:10:14;;;;;;;2.63;2.03;;;;;;;;;;5054014;28;20365;-46
2022/06/12 11:12:52;;;;;;;5.72;2.70;;;;;;;;;;5054236;28;20025;-45
2022/06/12 11:15:29;;;;;;;2.35;2.10;;;;;;;;;;5054169;28;20025;-50
2022/06/12 11:18:14;;;;;;;2.10;2.00;;;;;;;;;;5053899;28;20064;-49
2022/06/12 11:21:00;;;;;;;2.58;2.30;;;;;;;;;;5053800;28;20040;-60
2022/06/12 11:23:47;;;;;;;2.47;2.10;;;;;;;;;;5053726;28;20021;-43
2022/06/12 11:26:15;;;;;;;2.35;2.15;;;;;;;;;;5053580;28;20029;-42
2022/06/12 11:28:52;;;;;;;2.42;2.22;;;;;;;;;;5053870;28;20037;-55
2022/06/12 11:31:20;;;;;;;2.63;2.10;;;;;;;;;;5053900;28;20013;-47
2022/06/12 11:34:21;;;;;;;2.65;1.85;;;;;;;;;;5053755;28;20025;-55
2022/06/12 11:36:46;;;;;;;2.85;2.10;;;;;;;;;;5053761;28;20025;-67
2022/06/12 11:39:18;;;;;;;4.00;2.20;;;;;;;;;;5053695;28;20025;-54
2022/06/12 11:41:57;;;;;;;3.53;1.92;;;;;;;;;;5053418;28;20044;-55
2022/06/12 11:44:45;;;;;;;2.15;2.05;;;;;;;;;;5053248;28;20024;-49
2022/06/12 11:47:29;;;;;;;2.75;2.22;;;;;;;;;;5053331;28;20033;-51
2022/06/12 11:50:03;;;;;;;6.47;2.10;;;;;;;;;;5052427;28;20480;-45
2022/06/12 11:52:46;;;;;;;2.08;1.90;;;;;;;;;;5053142;28;20488;-53
2022/06/12 11:55:36;;;;;;;5.13;2.25;;;;;;;;;;5052932;28;20397;-49
2022/06/12 11:58:20;;;;;;;2.30;2.10;;;;;;;;;;5053297;28;20039;-46
2022/06/12 12:01:01;;;;;;;4.15;2.22;;;;;;;;;;5053017;28;20025;-53
2022/06/12 12:03:38;;;;;;;3.33;2.20;;;;;;;;;;5053230;28;20078;-49
2022/06/12 12:06:19;;;;;;;2.75;2.00;;;;;;;;;;5053149;28;20037;-56
2022/06/12 12:09:11;;;;;;;1.95;1.70;;;;;;;;;;5053142;28;20039;-47
2022/06/12 12:11:52;;;;;;;2.40;2.20;;;;;;;;;;5052821;28;20083;-46
2022/06/12 12:14:27;;;;;;;2.88;2.28;;;;;;;;;;5051433;28;20036;-51
2022/06/12 12:17:13;;;;;;;2.75;2.20;;;;;;;;;;5053067;28;20021;-60
2022/06/12 12:19:52;;;;;;;3.40;2.40;;;;;;;;;;5052971;28;20017;-61
2022/06/12 12:22:33;;;;;;;3.83;2.35;;;;;;;;;;5052973;28;20059;-42
2022/06/12 12:25:24;;;;;;;3.28;2.20;;;;;;;;;;5052593;28;20473;-50
2022/06/12 12:27:53;;;;;;;3.25;2.20;;;;;;;;;;5052791;28;20389;-49
2022/06/12 12:30:26;;;;;;;3.17;2.20;;;;;;;;;;5053138;28;20036;-59
2022/06/12 12:33:04;;;;;;;3.67;2.30;;;;;;;;;;5052770;28;20021;-61
2022/06/12 12:41:13;;;;;;;2.10;2.00;;;;;;;;;;5052706;28;20385;-52
2022/06/12 12:43:59;;;;;;;2.55;2.20;;;;;;;;;;5052719;28;20052;-62
2022/06/12 12:46:44;;;;;;;4.63;2.63;;;;;;;;;;5052178;28;20480;-56
2022/06/12 12:49:24;;;;;;;2.33;2.13;;;;;;;;;;5052375;28;20021;-47
2022/06/12 12:51:50;;;;;;;2.50;2.30;;;;;;;;;;5052593;28;20029;-59
2022/06/12 12:54:19;;;;;;;2.70;2.28;;;;;;;;;;5052235;28;20075;-56
2022/06/12 12:56:55;;;;;;;2.10;1.90;;;;;;;;;;5052299;28;20480;-53
2022/06/12 12:59:22;;;;;;;3.08;2.50;;;;;;;;;;5052578;28;20025;-43
2022/06/12 13:01:50;;;;;;;2.75;2.20;;;;;;;;;;5054999;28;20492;-49
2022/06/12 13:04:23;;;;;;;2.35;2.17;;;;;;;;;;5055353;28;20028;-46
2022/06/12 13:07:02;;;;;;;2.80;2.17;;;;;;;;;;5056968;28;20025;-43
2022/06/12 13:09:47;;;;;;;4.03;2.28;;;;;;;;;;5055484;28;20025;-54
2022/06/12 13:12:50;;;;;;;2.40;2.20;;;;;;;;;;5056288;28;20032;-48
2022/06/12 13:15:19;;;;;;;2.65;2.30;;;;;;;;;;5056226;28;20108;-47
2022/06/12 13:18:09;;;;;;;3.67;2.33;;;;;;;;;;5056189;28;20056;-47
2022/06/12 13:20:49;;;;;;;3.67;2.20;;;;;;;;;;5056127;28;20504;-51
2022/06/12 13:23:38;;;;;;;2.35;2.00;;;;;;;;;;5056017;28;20115;-46
2022/06/12 13:26:07;;;;;;;3.03;1.98;;;;;;;;;;5056318;28;20021;-47
2022/06/12 13:28:34;;;;;;;2.33;2.13;;;;;;;;;;5055897;28;20033;-45
2022/06/12 13:31:01;;;;;;;2.58;1.95;;;;;;;;;;5056165;28;20021;-49
2022/06/12 13:33:30;;;;;;;3.97;2.33;;;;;;;;;;5056214;28;20028;-52
2022/06/12 13:36:10;;;;;;;2.00;1.90;;;;;;;;;;5056289;28;20029;-49
2022/06/12 13:38:47;;;;;;;2.20;2.00;;;;;;;;;;5056234;28;20100;-47
2022/06/12 13:41:38;;;;;;;4.35;2.40;;;;;;;;;;5056219;28;20104;-50
2022/06/12 13:44:22;;;;;;;3.85;2.10;;;;;;;;;;5056144;28;20469;-50
2022/06/12 13:46:51;;;;;;;3.35;2.28;;;;;;;;;;5056291;28;20036;-57
2022/06/12 13:49:35;;;;;;;2.60;2.40;;;;;;;;;;5056724;28;20431;-47
2022/06/12 13:52:16;;;;;;;3.97;2.20;;;;;;;;;;5056098;28;20041;-43
2022/06/12 13:54:44;;;;;;;5.30;2.72;;;;;;;;;;5056027;28;20471;-42
2022/06/12 13:57:19;;;;;;;3.30;2.00;;;;;;;;;;5055111;28;20116;-58
2022/06/12 13:59:47;;;;;;;2.30;2.10;;;;;;;;;;5055792;28;20040;-46
2022/06/12 14:02:25;;;;;;;2.25;2.05;;;;;;;;;;5055731;28;20045;-44
2022/06/12 14:04:55;;;;;;;2.22;2.00;;;;;;;;;;5055605;28;20075;-47
2022/06/12 14:07:22;;;;;;;1.95;1.80;;;;;;;;;;5056341;28;20079;-60
2022/06/12 14:09:52;;;;;;;2.55;2.08;;;;;;;;;;5055850;28;20547;-47
2022/06/12 14:12:18;;;;;;;2.45;2.25;;;;;;;;;;5055344;28;20032;-48
2022/06/12 14:14:46;;;;;;;2.70;2.17;;;;;;;;;;5055143;28;20029;-47
2022/06/12 14:17:28;;;;;;;3.13;2.15;;;;;;;;;;5055911;28;20588;-47
2022/06/12 14:19:55;;;;;;;2.50;2.03;;;;;;;;;;5055459;28;20473;-45
2022/06/12 14:22:22;;;;;;;3.55;2.20;;;;;;;;;;5055659;28;20032;-47
2022/06/12 14:25:16;;;;;;;2.40;2.20;;;;;;;;;;5055520;28;20057;-46
2022/06/12 14:27:56;;;;;;;4.15;2.38;;;;;;;;;;5055502;28;20036;-47
2022/06/12 14:30:44;;;;;;;3.20;2.15;;;;;;;;;;5055345;28;20025;-46
2022/06/12 14:33:31;;;;;;;2.63;2.42;;;;;;;;;;5055057;28;20031;-47
2022/06/12 14:35:57;;;;;;;7.28;2.40;;;;;;;;;;5055420;28;20025;-44
2022/06/12 14:38:25;;;;;;;2.50;2.30;;;;;;;;;;5055266;28;20032;-43
2022/06/12 14:40:51;;;;;;;2.88;2.30;;;;;;;;;;5055065;28;20021;-42
2022/06/12 14:43:37;;;;;;;3.45;2.28;;;;;;;;;;5054964;28;20079;-42
2022/06/12 14:46:13;;;;;;;2.45;2.20;;;;;;;;;;5054639;28;20108;-50
2022/06/12 14:48:38;;;;;;;2.70;2.15;;;;;;;;;;5055129;28;20028;-46
2022/06/12 14:51:04;;;;;;;3.05;2.38;;;;;;;;;;5054738;28;20039;-57
2022/06/12 14:53:30;;;;;;;2.42;2.22;;;;;;;;;;5054662;28;20124;-66
2022/06/12 14:55:59;;;;;;;7.03;2.22;;;;;;;;;;5054360;28;20049;-54
2022/06/12 14:58:26;;;;;;;2.75;2.55;;;;;;;;;;5054495;28;20037;-45
2022/06/12 15:00:56;;;;;;;2.33;2.13;;;;;;;;;;5054529;28;20033;-49
2022/06/12 15:03:22;;;;;;;2.45;2.15;;;;;;;;;;5054714;28;20021;-44
2022/06/12 15:05:48;;;;;;;5.18;2.40;;;;;;;;;;5054621;28;20029;-52
2022/06/12 15:08:13;;;;;;;4.57;2.28;;;;;;;;;;5054562;28;20476;-47
2022/06/12 15:10:40;;;;;;;3.88;2.20;;;;;;;;;;5053252;28;20021;-65
2022/06/12 15:13:06;;;;;;;4.93;2.33;;;;;;;;;;5054755;28;20118;-44
2022/06/12 15:15:32;;;;;;;4.35;2.72;;;;;;;;;;5054593;28;20052;-49
2022/06/12 15:17:57;;;;;;;2.70;2.50;;;;;;;;;;5054025;28;20025;-53
2022/06/12 15:20:23;;;;;;;3.15;2.25;;;;;;;;;;5054075;28;20112;-61
2022/06/12 15:22:48;;;;;;;2.65;2.38;;;;;;;;;;5054314;28;20151;-63
2022/06/12 15:30:49;;;;;;;2.42;2.22;;;;;;;;;;5053859;28;20028;-49
2022/06/12 15:33:15;;;;;;;4.05;2.60;;;;;;;;;;5054156;28;20025;-50
2022/06/12 15:35:40;;;;;;;3.65;2.30;;;;;;;;;;5054258;28;20369;-59
2022/06/12 15:38:06;;;;;;;3.55;2.50;;;;;;;;;;5054259;28;20384;-44
2022/06/12 15:40:31;;;;;;;3.70;2.50;;;;;;;;;;5054039;28;20016;-58
2022/06/12 15:42:57;;;;;;;3.00;2.70;;;;;;;;;;5053716;28;20044;-43